Time;durP1;ratioP1;P1;durP2;ratioP2;P2;SDS_P1;SDS_P2;PMS_P1;PMS_P2;Temp;Humidity;BMP_temperature;BMP_pressure;BME280_temperature;BME280_humidity;BME280_pressure;Samples;Min_cycle;Max_cycle;Signal;HPM_P1;HPM_P2
2022/09/21 00:00:52;;;;;;;0.60;0.60;;;;;;;10.16;100.00;101145.94;5044277;28;20474;-56
2022/09/21 00:03:18;;;;;;;6.73;1.27;;;;;;;10.02;100.00;101138.16;5038715;28;20454;-56
2022/09/21 00:05:45;;;;;;;1.00;1.00;;;;;;;10.05;100.00;101138.09;5051231;28;20446;-57
2022/09/21 00:08:13;;;;;;;1.80;1.70;;;;;;;10.00;100.00;101139.03;5038585;28;20454;-56
2022/09/21 00:10:39;;;;;;;1.30;1.20;;;;;;;9.90;100.00;101140.06;5039602;28;20522;-56
2022/09/21 00:13:07;;;;;;;3.00;1.03;;;;;;;9.89;100.00;101139.19;5045400;28;20460;-56
2022/09/21 00:15:34;;;;;;;0.90;0.50;;;;;;;10.07;100.00;101143.38;5037446;28;20529;-55
2022/09/21 00:18:01;;;;;;;0.70;0.70;;;;;;;10.06;100.00;101146.94;5051990;28;20507;-56
2022/09/21 00:20:28;;;;;;;7.57;1.60;;;;;;;9.83;100.00;101141.91;5037669;28;20471;-56
2022/09/21 00:22:54;;;;;;;0.90;0.80;;;;;;;9.73;100.00;101146.47;5032137;28;20878;-56
2022/09/21 00:25:21;;;;;;;0.70;0.70;;;;;;;9.72;100.00;101149.97;5044589;28;20963;-56
2022/09/21 00:27:50;;;;;;;0.80;0.80;;;;;;;9.69;100.00;101144.72;5026284;28;20505;-55
2022/09/21 00:30:17;;;;;;;2.57;1.90;;;;;;;9.52;100.00;101138.72;5038006;28;20533;-55
2022/09/21 00:32:43;;;;;;;1.40;1.30;;;;;;;9.58;100.00;101143.94;5043926;28;20519;-56
2022/09/21 00:35:10;;;;;;;1.47;1.10;;;;;;;9.52;100.00;101143.16;5032712;28;20487;-56
2022/09/21 00:37:36;;;;;;;0.53;0.53;;;;;;;9.47;100.00;101149.41;5044338;28;20460;-56
2022/09/21 00:40:03;;;;;;;1.03;0.93;;;;;;;9.41;100.00;101148.56;5043799;28;20455;-55
2022/09/21 00:42:32;;;;;;;1.27;0.67;;;;;;;9.39;100.00;101150.34;5039493;28;20520;-56
2022/09/21 00:44:59;;;;;;;1.37;1.27;;;;;;;9.33;100.00;101139.81;5038101;28;20448;-55
2022/09/21 00:47:39;;;;;;;0.80;0.80;;;;;;;9.25;100.00;101141.66;5042647;28;20505;-56
2022/09/21 00:50:10;;;;;;;1.60;0.40;;;;;;;9.29;100.00;101148.69;5044733;28;20479;-56
2022/09/21 00:52:46;;;;;;;7.63;0.80;;;;;;;9.23;100.00;101144.31;5042925;28;20454;-55
2022/09/21 00:55:17;;;;;;;1.10;1.00;;;;;;;9.28;100.00;101141.63;5037591;28;21028;-56
2022/09/21 00:57:50;;;;;;;0.50;0.50;;;;;;;9.16;100.00;101148.78;5038023;28;20942;-55
2022/09/21 01:00:16;;;;;;;1.00;0.70;;;;;;;9.02;100.00;101142.72;5026588;28;20490;-55
2022/09/21 01:02:44;;;;;;;2.13;2.03;;;;;;;8.95;100.00;101145.47;5037732;28;20467;-55
2022/09/21 01:05:11;;;;;;;0.53;0.37;;;;;;;9.04;100.00;101140.94;5050745;28;20530;-56
2022/09/21 01:07:41;;;;;;;1.07;0.97;;;;;;;8.97;100.00;101146.31;5037417;28;20514;-56
2022/09/21 01:10:12;;;;;;;3.60;0.80;;;;;;;8.85;100.00;101142.88;5042804;28;20464;-56
2022/09/21 01:12:48;;;;;;;2.00;1.13;;;;;;;8.93;100.00;101148.13;5044378;28;21013;-55
2022/09/21 01:15:32;;;;;;;1.30;1.03;;;;;;;8.89;100.00;101146.38;5031221;28;20521;-56
2022/09/21 01:18:07;;;;;;;0.50;0.40;;;;;;;8.91;100.00;101144.63;5024782;28;20451;-56
2022/09/21 01:21:13;;;;;;;0.50;0.50;;;;;;;8.80;100.00;101141.16;5037282;28;20467;-55
2022/09/21 01:23:44;;;;;;;0.80;0.73;;;;;;;8.70;100.00;101150.06;5014717;28;20979;-56
2022/09/21 01:26:32;;;;;;;0.50;0.50;;;;;;;8.57;100.00;101150.13;5038370;28;21233;-56
2022/09/21 01:29:27;;;;;;;0.53;0.53;;;;;;;8.62;100.00;101150.09;5037172;28;20475;-55
2022/09/21 01:32:04;;;;;;;1.60;0.80;;;;;;;8.54;100.00;101155.47;5019506;28;20612;-56
2022/09/21 01:34:42;;;;;;;6.50;1.87;;;;;;;8.39;100.00;101150.25;5041524;28;20851;-55
2022/09/21 01:37:14;;;;;;;0.77;0.77;;;;;;;8.54;100.00;101154.59;5043818;28;21105;-55
2022/09/21 01:39:46;;;;;;;0.50;0.47;;;;;;;8.54;100.00;101158.13;5041902;28;20443;-56
2022/09/21 01:42:15;;;;;;;1.20;0.97;;;;;;;8.48;100.00;101163.44;5037262;28;20512;-55
2022/09/21 01:44:44;;;;;;;15.97;1.20;;;;;;;8.44;100.00;101156.41;5037506;28;20968;-56
2022/09/21 01:47:12;;;;;;;0.73;0.73;;;;;;;8.34;100.00;101162.63;5043715;28;20517;-55
2022/09/21 01:49:45;;;;;;;0.60;0.60;;;;;;;8.20;100.00;101156.50;5043749;28;20459;-56
2022/09/21 01:52:30;;;;;;;5.03;1.10;;;;;;;8.40;100.00;101159.09;5042153;28;21199;-55
2022/09/21 01:55:04;;;;;;;0.50;0.37;;;;;;;8.16;100.00;101154.75;5043403;28;20492;-56
2022/09/21 01:57:39;;;;;;;3.30;1.17;;;;;;;8.06;100.00;101158.31;5041478;28;20803;-55
2022/09/21 02:00:07;;;;;;;0.60;0.60;;;;;;;8.18;100.00;101150.31;5017381;28;20517;-56
2022/09/21 02:02:47;;;;;;;0.87;0.60;;;;;;;8.09;100.00;101153.91;5042641;28;20454;-56
2022/09/21 02:05:16;;;;;;;0.67;0.63;;;;;;;8.09;100.00;101147.75;5036805;28;20514;-55
2022/09/21 02:07:43;;;;;;;3.37;1.23;;;;;;;7.95;100.00;101156.63;5041865;28;20450;-55
2022/09/21 02:10:17;;;;;;;1.17;1.07;;;;;;;7.93;100.00;101155.72;5038898;28;20470;-56
2022/09/21 02:12:44;;;;;;;0.70;0.70;;;;;;;7.98;100.00;101156.59;5036416;28;20523;-56
2022/09/21 02:15:11;;;;;;;0.63;0.53;;;;;;;8.03;100.00;101161.88;5039360;28;20487;-56
2022/09/21 02:17:51;;;;;;;1.57;1.47;;;;;;;7.90;100.00;101160.16;5047079;28;20455;-56
2022/09/21 02:20:22;;;;;;;0.87;0.83;;;;;;;7.87;100.00;101161.06;5037338;28;20518;-56
2022/09/21 02:22:58;;;;;;;1.00;0.90;;;;;;;7.75;100.00;101157.56;5042225;28;20454;-56
2022/09/21 02:26:00;;;;;;;0.53;0.50;;;;;;;7.75;100.00;101160.22;5035953;28;20443;-55
2022/09/21 02:28:46;;;;;;;0.90;0.53;;;;;;;7.58;100.00;101166.44;5037346;28;20455;-55
2022/09/21 02:31:35;;;;;;;1.50;0.93;;;;;;;7.50;100.00;101167.31;5026294;28;20516;-55
2022/09/21 02:34:23;;;;;;;0.70;0.70;;;;;;;7.42;100.00;101164.72;5036289;28;20494;-56
2022/09/21 02:37:04;;;;;;;0.50;0.50;;;;;;;7.50;100.00;101168.19;5037391;28;20542;-56
2022/09/21 02:39:37;;;;;;;0.50;0.40;;;;;;;7.47;100.00;101168.22;5039074;28;20450;-55
2022/09/21 02:42:19;;;;;;;0.67;0.67;;;;;;;7.50;100.00;101165.56;5036149;28;20550;-56
2022/09/21 02:44:51;;;;;;;5.37;2.10;;;;;;;7.50;100.00;101167.31;5036702;28;20455;-56
2022/09/21 02:47:24;;;;;;;0.60;0.50;;;;;;;7.62;100.00;101169.94;5042326;28;20448;-56
2022/09/21 02:49:53;;;;;;;0.90;0.90;;;;;;;7.56;100.00;101169.97;5042434;28;21029;-56
2022/09/21 02:52:21;;;;;;;3.53;1.80;;;;;;;7.58;100.00;101171.72;5051718;23;20502;-51
2022/09/21 02:54:51;;;;;;;0.50;0.40;;;;;;;7.68;100.00;101169.94;5036032;28;20491;-51
2022/09/21 02:57:20;;;;;;;0.60;0.60;;;;;;;7.71;100.00;101170.81;5040245;28;20452;-51
2022/09/21 02:59:47;;;;;;;0.50;0.40;;;;;;;7.53;100.00;101176.13;5042735;28;20509;-51
2022/09/21 03:02:14;;;;;;;0.60;0.40;;;;;;;7.37;100.00;101172.63;5028893;28;20507;-51
2022/09/21 03:04:46;;;;;;;0.70;0.50;;;;;;;7.26;100.00;101171.75;5027436;28;20892;-51
2022/09/21 03:07:14;;;;;;;0.73;0.73;;;;;;;7.34;100.00;101171.75;5029063;28;20451;-51
2022/09/21 03:09:41;;;;;;;0.60;0.50;;;;;;;7.31;100.00;101169.13;5029207;28;20514;-51
2022/09/21 03:12:07;;;;;;;1.10;0.60;;;;;;;7.13;100.00;101173.56;5028890;28;20476;-51
2022/09/21 03:14:33;;;;;;;0.67;0.67;;;;;;;7.24;100.00;101170.88;5028665;28;20491;-51
2022/09/21 03:17:01;;;;;;;2.00;0.50;;;;;;;7.16;100.00;101170.03;5009354;28;20449;-52
2022/09/21 03:19:28;;;;;;;0.53;0.43;;;;;;;7.03;100.00;101171.78;5027668;28;20514;-50
2022/09/21 03:21:54;;;;;;;0.60;0.47;;;;;;;7.01;100.00;101170.03;5022940;28;20534;-51
2022/09/21 03:27:07;;;;;;;8.63;0.97;;;;;;;6.99;100.00;101174.41;5028749;28;20505;-51
2022/09/21 03:29:34;;;;;;;1.53;0.30;;;;;;;6.99;100.00;101174.41;5028994;28;20513;-51
2022/09/21 03:32:00;;;;;;;1.03;0.30;;;;;;;6.86;100.00;101183.25;5015169;28;20543;-51
2022/09/21 03:34:26;;;;;;;0.40;0.40;;;;;;;6.93;100.00;101180.59;5026518;28;21137;-51
2022/09/21 03:36:53;;;;;;;2.40;1.33;;;;;;;6.92;100.00;101177.94;5024091;28;21004;-52
2022/09/21 03:39:19;;;;;;;1.57;0.30;;;;;;;6.70;100.00;101175.25;5028705;28;20513;-51
2022/09/21 03:41:46;;;;;;;2.10;0.40;;;;;;;6.65;100.00;101182.31;5028743;28;20475;-51
2022/09/21 03:44:12;;;;;;;0.50;0.20;;;;;;;6.73;100.00;101184.97;5028613;28;20451;-51
2022/09/21 03:46:38;;;;;;;0.77;0.57;;;;;;;6.85;100.00;101187.59;5028374;28;20452;-51
2022/09/21 03:49:05;;;;;;;0.40;0.40;;;;;;;6.66;100.00;101181.44;5028759;28;20539;-51
2022/09/21 03:51:31;;;;;;;1.77;1.07;;;;;;;6.66;100.00;101181.44;5028553;28;20538;-52
2022/09/21 03:53:57;;;;;;;0.93;0.80;;;;;;;6.60;100.00;101185.84;5028829;28;20457;-51
2022/09/21 03:56:24;;;;;;;1.10;0.97;;;;;;;6.61;100.00;101183.19;5028583;28;20451;-52
2022/09/21 03:58:50;;;;;;;0.70;0.70;;;;;;;6.58;100.00;101180.56;5028662;28;20458;-51
2022/09/21 04:01:17;;;;;;;0.47;0.40;;;;;;;6.55;100.00;101180.53;5028238;28;20487;-51
2022/09/21 04:03:43;;;;;;;1.10;1.00;;;;;;;6.65;100.00;101187.59;5028246;28;20456;-51
2022/09/21 04:06:11;;;;;;;1.43;1.33;;;;;;;6.76;100.00;101191.16;5028175;28;20455;-51
2022/09/21 04:08:38;;;;;;;0.60;0.50;;;;;;;6.60;100.00;101199.94;5028567;28;20885;-51
2022/09/21 04:11:12;;;;;;;1.93;1.50;;;;;;;6.63;100.00;101188.47;5028377;28;20471;-51
2022/09/21 04:13:38;;;;;;;3.50;1.10;;;;;;;6.64;100.00;101191.13;5028308;28;21457;-51
2022/09/21 04:16:05;;;;;;;0.90;0.60;;;;;;;6.47;100.00;101196.38;5020095;28;20562;-51
2022/09/21 04:18:32;;;;;;;5.03;0.43;;;;;;;6.52;100.00;101197.25;5023304;28;20880;-51
2022/09/21 04:20:58;;;;;;;0.50;0.50;;;;;;;6.49;100.00;101206.94;5032287;28;20518;-51
2022/09/21 04:23:25;;;;;;;0.70;0.67;;;;;;;6.38;100.00;101206.00;5025294;28;20455;-51
2022/09/21 04:25:53;;;;;;;0.50;0.50;;;;;;;6.38;100.00;101198.09;5031785;28;20455;-51
2022/09/21 04:28:19;;;;;;;1.90;0.60;;;;;;;6.44;100.00;101198.09;5014086;28;20806;-51
2022/09/21 04:30:46;;;;;;;1.40;1.30;;;;;;;6.43;100.00;101204.25;5032130;28;20769;-51
2022/09/21 04:33:13;;;;;;;1.50;0.73;;;;;;;6.41;100.00;101203.38;5031836;28;20458;-51
2022/09/21 04:35:39;;;;;;;1.90;1.43;;;;;;;7.02;100.00;101204.38;5025298;28;20553;-52
2022/09/21 04:38:06;;;;;;;0.93;0.93;;;;;;;6.75;100.00;101197.31;5031783;28;20447;-50
2022/09/21 04:40:32;;;;;;;1.33;1.23;;;;;;;6.44;100.00;101204.28;5031715;28;20530;-51
2022/09/21 04:42:59;;;;;;;1.00;0.60;;;;;;;6.33;100.00;101205.13;5031617;28;20486;-51
2022/09/21 04:45:25;;;;;;;6.33;2.47;;;;;;;6.39;100.00;101213.06;5031609;28;20483;-51
2022/09/21 04:47:52;;;;;;;0.53;0.50;;;;;;;6.36;100.00;101216.56;5031673;28;20949;-51
2022/09/21 04:50:18;;;;;;;1.00;0.93;;;;;;;6.30;100.00;101216.53;5031475;28;20455;-52
2022/09/21 04:52:45;;;;;;;1.13;1.03;;;;;;;6.29;100.00;101216.53;5031738;28;20483;-51
2022/09/21 04:55:11;;;;;;;0.63;0.63;;;;;;;6.22;100.00;101213.88;5031285;28;20494;-51
2022/09/21 04:57:37;;;;;;;1.40;1.10;;;;;;;6.22;100.00;101220.91;5031231;28;20508;-51
2022/09/21 05:00:05;;;;;;;3.63;1.97;;;;;;;6.31;100.00;101228.88;5031444;28;20467;-51
2022/09/21 05:02:31;;;;;;;1.17;0.97;;;;;;;6.32;100.00;101229.78;5031050;28;20541;-51
2022/09/21 05:04:57;;;;;;;19.63;1.73;;;;;;;6.16;100.00;101226.16;5024820;28;20499;-50
2022/09/21 05:07:24;;;;;;;1.40;0.80;;;;;;;6.36;100.00;101229.78;5025184;28;20487;-51
2022/09/21 05:10:02;;;;;;;1.03;1.03;;;;;;;6.36;100.00;101237.69;5031033;28;20513;-51
2022/09/21 05:12:33;;;;;;;0.80;0.80;;;;;;;6.35;100.00;101233.28;5031340;28;20471;-51
2022/09/21 05:15:00;;;;;;;0.90;0.90;;;;;;;6.31;100.00;101235.94;5028057;28;21268;-51
2022/09/21 05:17:26;;;;;;;1.50;1.40;;;;;;;6.52;100.00;101241.28;5014343;28;20466;-51
2022/09/21 05:19:53;;;;;;;0.63;0.63;;;;;;;6.62;100.00;101242.19;5030998;28;20806;-51
2022/09/21 05:22:20;;;;;;;1.43;1.03;;;;;;;6.61;100.00;101243.06;5012186;28;20542;-51
2022/09/21 05:24:46;;;;;;;1.73;0.93;;;;;;;6.64;100.00;101245.72;5030654;28;20521;-51
2022/09/21 05:27:13;;;;;;;0.70;0.70;;;;;;;6.69;100.00;101247.47;5030085;28;20452;-51
2022/09/21 05:29:40;;;;;;;1.00;1.00;;;;;;;6.74;100.00;101251.03;5030788;28;20936;-51
2022/09/21 05:32:48;;;;;;;0.60;0.60;;;;;;;6.86;100.00;101254.59;5030439;28;20476;-51
2022/09/21 05:35:21;;;;;;;1.50;1.40;;;;;;;6.94;100.00;101248.41;5012980;28;20507;-51
2022/09/21 05:37:58;;;;;;;1.33;1.23;;;;;;;6.91;100.00;101263.41;5030753;28;20455;-51
2022/09/21 05:40:24;;;;;;;1.90;1.30;;;;;;;6.93;100.00;101256.34;5030503;28;20497;-52
2022/09/21 05:42:51;;;;;;;0.60;0.50;;;;;;;6.81;100.00;101255.44;5030513;28;20545;-51
2022/09/21 05:45:19;;;;;;;1.70;1.57;;;;;;;6.85;100.00;101258.97;5030171;28;20448;-51
2022/09/21 05:47:59;;;;;;;4.23;0.40;;;;;;;6.98;100.00;101258.09;5031227;28;20482;-51
2022/09/21 05:50:44;;;;;;;0.80;0.70;;;;;;;6.97;100.00;101266.03;5030444;28;20531;-51
2022/09/21 05:53:32;;;;;;;0.93;0.80;;;;;;;7.01;100.00;101267.81;5030416;28;20456;-51
2022/09/21 05:56:11;;;;;;;1.60;0.83;;;;;;;7.19;100.00;101267.84;5030214;28;20966;-52
2022/09/21 05:58:40;;;;;;;0.83;0.83;;;;;;;7.21;100.00;101266.06;5030468;28;20451;-51
2022/09/21 06:01:22;;;;;;;1.73;1.03;;;;;;;7.30;100.00;101267.84;5030506;28;20479;-51
2022/09/21 06:03:49;;;;;;;1.00;0.60;;;;;;;7.40;100.00;101269.59;5008449;28;20454;-51
2022/09/21 06:06:19;;;;;;;0.80;0.40;;;;;;;7.31;100.00;101272.25;5028146;28;20501;-52
2022/09/21 06:08:45;;;;;;;1.23;1.03;;;;;;;7.35;100.00;101274.91;5030409;28;20459;-51
2022/09/21 06:11:12;;;;;;;2.20;2.10;;;;;;;7.54;100.00;101282.81;5029983;28;20476;-51
2022/09/21 06:13:40;;;;;;;1.10;1.00;;;;;;;7.63;100.00;101278.41;5030598;28;20478;-51
2022/09/21 06:16:06;;;;;;;1.43;1.13;;;;;;;7.67;100.00;101274.00;5018323;28;20488;-53
2022/09/21 06:18:38;;;;;;;1.70;0.50;;;;;;;7.78;100.00;101285.47;5021603;28;20471;-52
2022/09/21 06:21:06;;;;;;;1.27;1.17;;;;;;;7.77;100.00;101281.06;5029753;28;20475;-52
2022/09/21 06:23:32;;;;;;;2.93;2.73;;;;;;;7.96;100.00;101284.56;5022495;28;20962;-52
2022/09/21 06:25:59;;;;;;;3.20;1.40;;;;;;;7.91;100.00;101286.31;5030580;28;20510;-52
2022/09/21 06:28:26;;;;;;;0.70;0.60;;;;;;;8.01;100.00;101294.25;5030589;28;20451;-52
2022/09/21 06:30:55;;;;;;;0.97;0.97;;;;;;;7.96;100.00;101290.75;5029971;28;20522;-53
2022/09/21 06:33:22;;;;;;;1.07;0.97;;;;;;;8.12;100.00;101288.94;5030378;28;20546;-52
2022/09/21 06:35:57;;;;;;;1.13;1.13;;;;;;;8.22;100.00;101285.41;5022050;28;20504;-52
2022/09/21 06:38:24;;;;;;;1.00;0.80;;;;;;;8.23;100.00;101286.28;5029592;28;20451;-52
2022/09/21 06:40:51;;;;;;;1.43;1.33;;;;;;;8.35;100.00;101288.88;5029495;28;20901;-51
2022/09/21 06:43:18;;;;;;;2.07;1.97;;;;;;;8.54;100.00;101285.31;5029721;28;20513;-52
2022/09/21 06:45:56;;;;;;;0.70;0.70;;;;;;;8.60;100.00;101289.69;5029154;28;20551;-52
2022/09/21 06:48:23;;;;;;;2.30;1.27;;;;;;;8.59;100.00;101295.88;5029213;28;20443;-53
2022/09/21 06:50:50;;;;;;;2.17;2.07;;;;;;;8.69;100.00;101291.44;5029094;28;20541;-52
2022/09/21 06:53:17;;;;;;;1.67;1.60;;;;;;;8.80;100.00;101287.84;5029112;28;20482;-52
2022/09/21 06:55:43;;;;;;;2.47;1.73;;;;;;;8.93;100.00;101295.72;5029589;28;20499;-52
2022/09/21 06:58:09;;;;;;;12.53;2.23;;;;;;;9.24;100.00;101293.75;5029037;28;20502;-52
2022/09/21 07:00:36;;;;;;;2.47;1.93;;;;;;;9.03;100.00;101295.63;5028989;28;20475;-52
2022/09/21 07:03:03;;;;;;;1.73;1.50;;;;;;;9.02;100.00;101298.31;5029148;28;20462;-53
2022/09/21 07:05:31;;;;;;;5.13;1.27;;;;;;;9.12;100.00;101292.06;5028598;28;20501;-52
2022/09/21 07:07:57;;;;;;;1.23;1.13;;;;;;;9.22;100.00;101291.13;5028873;28;20458;-53
2022/09/21 07:10:25;;;;;;;2.33;2.23;;;;;;;9.40;100.00;101298.06;5029207;28;20531;-52
2022/09/21 07:12:51;;;;;;;14.33;2.27;;;;;;;9.43;100.00;101295.38;5028792;28;20487;-52
2022/09/21 07:15:18;;;;;;;1.40;1.30;;;;;;;9.53;100.00;101302.38;5023276;28;20492;-52
2022/09/21 07:17:44;;;;;;;1.60;1.50;;;;;;;9.63;100.00;101290.78;5013838;28;20448;-52
2022/09/21 07:20:17;;;;;;;0.80;0.80;;;;;;;9.56;100.00;101299.69;5028813;28;20956;-52
2022/09/21 07:22:43;;;;;;;1.47;1.37;;;;;;;9.93;100.00;101297.59;5021833;28;20459;-52
2022/09/21 07:25:13;;;;;;;2.23;2.03;;;;;;;9.95;100.00;101297.56;5028727;28;20459;-53
2022/09/21 07:27:39;;;;;;;3.33;1.47;;;;;;;9.82;100.00;101295.94;5028953;28;20455;-52
2022/09/21 07:30:07;;;;;;;3.53;1.50;;;;;;;9.82;100.00;101286.19;5028951;28;20456;-52
2022/09/21 07:32:34;;;;;;;3.97;2.20;;;;;;;9.78;100.00;101295.09;5002486;28;20483;-52
2022/09/21 07:35:01;;;;;;;12.23;4.57;;;;;;;10.10;100.00;101302.72;5021881;28;20456;-52
2022/09/21 07:37:30;;;;;;;4.53;3.70;;;;;;;10.10;100.00;101297.41;5002690;28;21007;-50
2022/09/21 07:39:56;;;;;;;2.17;1.97;;;;;;;9.72;100.00;101292.47;5028442;28;20502;-50
2022/09/21 07:42:25;;;;;;;10.57;3.00;;;;;;;9.67;100.00;101300.47;5028768;28;20545;-50
2022/09/21 07:44:53;;;;;;;8.33;3.20;;;;;;;9.88;100.00;101299.44;5028948;28;20455;-49
2022/09/21 07:47:30;;;;;;;4.97;1.40;;;;;;;10.12;100.00;101294.75;5028675;28;20949;-50
2022/09/21 07:49:56;;;;;;;5.50;2.50;;;;;;;10.07;100.00;101295.69;5030354;28;20455;-51
2022/09/21 07:52:23;;;;;;;2.63;2.40;;;;;;;10.22;100.00;101296.44;5032289;28;20514;-52
2022/09/21 07:54:49;;;;;;;2.63;2.43;;;;;;;9.97;100.00;101296.66;5032613;28;20879;-51
2022/09/21 08:00:01;;;;;;;3.10;2.90;;;;;;;10.45;100.00;101290.88;5032464;28;20477;-51
2022/09/21 08:02:27;;;;;;;3.83;2.77;;;;;;;10.39;100.00;101305.09;5032494;28;20476;-51
2022/09/21 08:04:54;;;;;;;14.03;3.77;;;;;;;10.31;100.00;101301.66;5025924;28;20460;-51
2022/09/21 08:07:20;;;;;;;3.00;2.80;;;;;;;10.41;100.00;101302.41;5025385;28;20869;-51
2022/09/21 08:09:48;;;;;;;3.00;2.70;;;;;;;11.10;100.00;101297.09;5032127;28;20956;-51
2022/09/21 08:12:16;;;;;;;2.33;2.23;;;;;;;11.12;100.00;101297.97;5032329;28;20471;-52
2022/09/21 08:14:43;;;;;;;5.80;2.87;;;;;;;10.92;100.00;101299.09;5005294;28;21019;-50
2022/09/21 08:17:09;;;;;;;3.90;2.90;;;;;;;10.87;100.00;101300.97;5012192;28;21003;-50
2022/09/21 08:19:35;;;;;;;3.23;2.73;;;;;;;10.72;100.00;101298.50;5006099;28;20451;-52
2022/09/21 08:22:02;;;;;;;6.83;5.17;;;;;;;10.93;100.00;101298.22;5025137;28;20476;-51
2022/09/21 08:24:30;;;;;;;8.37;2.87;;;;;;;11.22;100.00;101291.59;5032243;28;20517;-51
2022/09/21 08:26:56;;;;;;;2.60;2.40;;;;;;;11.29;100.00;101306.56;5032391;28;20482;-52
2022/09/21 08:29:23;;;;;;;2.03;1.93;;;;;;;11.19;100.00;101296.97;5031854;28;20986;-51
2022/09/21 08:31:52;;;;;;;6.37;3.43;;;;;;;11.35;100.00;101306.47;5031783;28;20530;-52
2022/09/21 08:34:18;;;;;;;2.40;2.30;;;;;;;11.77;100.00;101296.91;5030496;28;20463;-52
2022/09/21 08:36:45;;;;;;;2.33;2.13;;;;;;;11.91;100.00;101303.81;5026425;28;20490;-51
2022/09/21 08:39:12;;;;;;;2.37;2.17;;;;;;;11.83;100.00;101303.94;5032390;28;20517;-51
2022/09/21 08:42:08;;;;;;;2.63;2.53;;;;;;;11.83;100.00;101309.28;5031862;28;20888;-51
2022/09/21 08:44:41;;;;;;;3.20;3.00;;;;;;;12.31;100.00;101301.28;5031491;28;20514;-51
2022/09/21 08:47:16;;;;;;;3.00;2.80;;;;;;;12.17;100.00;101304.22;5031549;28;20991;-51
2022/09/21 08:49:52;;;;;;;9.50;4.30;;;;;;;11.73;100.00;101297.88;5031752;28;20451;-51
2022/09/21 08:52:20;;;;;;;7.10;3.43;;;;;;;12.19;100.00;101298.84;5032154;28;20482;-49
2022/09/21 08:54:50;;;;;;;10.67;2.50;;;;;;;12.32;100.00;101293.25;5031533;28;20989;-51
2022/09/21 08:57:17;;;;;;;3.03;2.73;;;;;;;12.95;100.00;101300.81;5031824;28;20487;-50
2022/09/21 08:59:46;;;;;;;5.47;3.57;;;;;;;12.73;100.00;101294.19;5031425;28;20510;-48
2022/09/21 09:02:34;;;;;;;6.17;3.73;;;;;;;12.82;100.00;101291.34;5030151;28;20525;-52
2022/09/21 09:05:23;;;;;;;2.83;2.20;;;;;;;12.91;100.00;101290.25;5005244;28;20513;-48
2022/09/21 09:08:05;;;;;;;2.70;2.50;;;;;;;13.17;100.00;101295.03;5031174;28;20868;-49
2022/09/21 09:11:03;;;;;;;3.47;3.17;;;;;;;12.88;100.00;101291.19;5031285;28;20456;-49
2022/09/21 09:13:55;;;;;;;3.00;2.80;;;;;;;13.14;100.00;101279.03;5010461;28;20459;-49
2022/09/21 09:16:56;;;;;;;4.10;3.70;;;;;;;13.18;100.00;101281.66;5016948;28;20539;-49
2022/09/21 09:19:42;;;;;;;3.17;2.87;;;;;;;13.38;100.00;101280.31;5029511;28;20447;-50
2022/09/21 09:22:13;;;;;;;3.73;3.33;;;;;;;13.26;100.00;101268.13;5024277;28;20472;-50
2022/09/21 09:24:47;;;;;;;1.47;1.33;;;;;;;13.89;99.84;101273.66;5031172;28;20478;-50
2022/09/21 09:27:26;;;;;;;5.47;4.03;;;;;;;13.74;99.90;101274.06;5030909;28;20451;-50
2022/09/21 09:30:03;;;;;;;3.07;2.87;;;;;;;13.64;99.38;101269.84;5030888;28;20505;-49
2022/09/21 09:32:41;;;;;;;13.80;4.13;;;;;;;13.56;100.00;101269.16;5004258;28;20979;-49
2022/09/21 09:35:28;;;;;;;5.93;4.20;;;;;;;13.97;99.08;101257.38;5024050;28;20516;-49
2022/09/21 09:38:14;;;;;;;3.67;2.83;;;;;;;14.29;97.83;101263.66;5030955;28;20459;-48
2022/09/21 09:41:02;;;;;;;3.13;3.03;;;;;;;14.13;96.53;101261.44;5004958;28;20521;-49
2022/09/21 09:43:58;;;;;;;2.40;2.20;;;;;;;14.23;97.85;101254.88;5030334;28;20949;-50
2022/09/21 09:46:44;;;;;;;3.37;3.10;;;;;;;14.04;96.91;101258.13;4974974;28;20523;-49
2022/09/21 09:49:25;;;;;;;2.10;1.90;;;;;;;14.11;98.10;101265.03;5030195;28;20448;-48
2022/09/21 09:51:52;;;;;;;2.30;2.20;;;;;;;14.36;96.89;101252.72;5030271;28;20491;-49
2022/09/21 09:54:26;;;;;;;4.20;2.80;;;;;;;14.64;96.56;101254.63;5030725;28;20455;-50
2022/09/21 09:56:54;;;;;;;3.97;2.33;;;;;;;14.31;98.13;101246.66;5030311;28;20491;-49
2022/09/21 09:59:29;;;;;;;7.87;1.70;;;;;;;15.03;94.76;101247.19;5030277;28;20452;-49
2022/09/21 10:02:04;;;;;;;2.80;2.60;;;;;;;14.63;94.64;101247.53;5005784;28;20475;-50
2022/09/21 10:04:30;;;;;;;2.10;2.00;;;;;;;15.09;93.54;101245.22;5029488;28;20475;-50
2022/09/21 10:06:57;;;;;;;2.77;2.57;;;;;;;14.81;95.08;101242.53;5030187;28;20448;-49
2022/09/21 10:09:31;;;;;;;1.97;1.83;;;;;;;14.83;95.51;101242.47;5029927;28;20502;-50
2022/09/21 10:12:15;;;;;;;1.80;1.70;;;;;;;14.94;94.35;101239.44;5029443;28;20537;-51
2022/09/21 10:14:50;;;;;;;1.53;1.43;;;;;;;14.91;90.26;101242.22;5029378;28;20451;-50
2022/09/21 10:17:18;;;;;;;1.00;0.90;;;;;;;15.12;86.15;101241.56;5010913;28;20492;-50
2022/09/21 10:19:45;;;;;;;3.43;2.03;;;;;;;15.27;86.03;101230.34;5030230;28;20460;-48
2022/09/21 10:22:17;;;;;;;2.67;1.17;;;;;;;15.32;86.10;101230.16;5022883;28;20543;-49
2022/09/21 10:24:52;;;;;;;4.93;1.13;;;;;;;15.36;85.93;101229.16;5029965;28;20801;-50
2022/09/21 10:27:43;;;;;;;7.13;1.57;;;;;;;15.34;85.73;101221.16;5029992;28;20472;-51
2022/09/21 10:30:33;;;;;;;1.47;0.80;;;;;;;15.05;85.27;101230.13;5029717;28;20502;-51
2022/09/21 10:33:00;;;;;;;1.63;1.20;;;;;;;15.30;84.25;101230.22;5029434;28;20502;-54
2022/09/21 10:35:27;;;;;;;8.37;0.80;;;;;;;15.40;84.78;101220.97;5022797;28;20451;-50
2022/09/21 10:38:16;;;;;;;3.70;1.40;;;;;;;15.68;84.94;101220.94;5029625;28;20491;-49
2022/09/21 10:40:48;;;;;;;3.80;0.83;;;;;;;15.82;82.80;101214.22;5005325;28;20478;-48
2022/09/21 10:43:32;;;;;;;3.03;1.63;;;;;;;15.79;81.52;101222.38;5029119;28;20427;-48
2022/09/21 10:46:03;;;;;;;0.90;0.60;;;;;;;15.73;77.77;101214.53;5029331;28;21268;-49
2022/09/21 10:48:29;;;;;;;3.87;0.60;;;;;;;15.88;77.88;101206.81;5029247;28;20451;-50
2022/09/21 10:50:56;;;;;;;0.50;0.40;;;;;;;16.17;80.11;101211.16;5029288;28;20952;-48
2022/09/21 10:53:27;;;;;;;0.50;0.30;;;;;;;16.19;78.55;101208.41;5028954;28;20460;-48
2022/09/21 10:56:04;;;;;;;17.63;1.07;;;;;;;16.20;74.08;101208.34;5029116;28;20444;-51
2022/09/21 10:59:09;;;;;;;0.73;0.67;;;;;;;16.23;74.88;101202.84;5006357;28;20452;-50
2022/09/21 11:01:43;;;;;;;12.93;0.80;;;;;;;16.24;76.87;101193.88;5029070;28;20521;-53
2022/09/21 11:04:21;;;;;;;0.83;0.70;;;;;;;16.42;76.18;101194.97;5028818;28;20529;-53
2022/09/21 11:06:53;;;;;;;0.87;0.70;;;;;;;16.28;76.79;101197.31;5006638;28;20972;-51
2022/09/21 11:09:45;;;;;;;2.90;0.80;;;;;;;16.22;78.67;101190.38;5028803;28;20502;-49
2022/09/21 11:12:21;;;;;;;0.53;0.37;;;;;;;16.21;77.07;101202.03;5028901;28;20892;-50
2022/09/21 11:15:01;;;;;;;0.83;0.40;;;;;;;16.75;78.68;101191.97;5003558;28;20482;-51
2022/09/21 11:17:39;;;;;;;0.60;0.50;;;;;;;16.49;78.94;101193.81;5011938;28;20884;-50
2022/09/21 11:20:28;;;;;;;0.80;0.77;;;;;;;16.81;76.99;101189.03;5028839;28;20455;-50
2022/09/21 11:23:09;;;;;;;0.70;0.53;;;;;;;16.69;76.12;101192.19;5010945;28;20919;-50
2022/09/21 11:25:52;;;;;;;3.43;0.70;;;;;;;16.62;76.02;101185.28;5028168;28;20451;-51
2022/09/21 11:28:27;;;;;;;0.70;0.70;;;;;;;16.56;76.31;101194.44;5028993;28;20447;-50
2022/09/21 11:31:09;;;;;;;1.00;0.80;;;;;;;16.62;77.75;101186.16;5002322;28;20474;-50
2022/09/21 11:34:03;;;;;;;0.70;0.60;;;;;;;17.08;76.02;101181.66;5028608;28;20455;-50
2022/09/21 11:36:56;;;;;;;5.80;0.83;;;;;;;16.95;76.61;101172.34;5022625;28;20477;-50
2022/09/21 11:39:55;;;;;;;0.63;0.60;;;;;;;16.85;76.64;101183.47;5008881;28;20521;-50
2022/09/21 11:42:48;;;;;;;14.67;0.83;;;;;;;16.64;76.34;101178.94;5004496;28;20484;-52
2022/09/21 11:45:39;;;;;;;7.93;0.80;;;;;;;17.20;76.04;101167.72;5028609;28;20953;-50
2022/09/21 11:48:18;;;;;;;0.70;0.60;;;;;;;17.09;75.63;101169.97;5028696;28;20448;-50
2022/09/21 11:51:05;;;;;;;0.80;0.60;;;;;;;17.38;76.37;101163.38;5028178;28;20483;-50
2022/09/21 11:53:57;;;;;;;2.70;1.13;;;;;;;17.23;73.92;101167.59;5028384;28;21104;-50